createdAt,value
2023-02-11T00:02:30.022Z,43.13
2023-02-11T00:04:57.780Z,47.85
2023-02-11T00:07:24.919Z,49.80
2023-02-11T00:12:38.364Z,54.22
2023-02-11T00:15:07.940Z,44.72
2023-02-11T00:17:36.765Z,52.15
2023-02-11T00:20:07.193Z,38.47
2023-02-11T00:22:35.170Z,36.92
2023-02-11T00:25:04.903Z,37.50
2023-02-11T00:27:32.571Z,47.20
2023-02-11T00:30:02.325Z,41.83
2023-02-11T00:32:29.424Z,51.42
2023-02-11T00:35:03.200Z,47.35
2023-02-11T00:37:31.907Z,53.47
2023-02-11T00:40:01.215Z,43.92
2023-02-11T00:42:28.238Z,37.97
2023-02-11T00:44:55.756Z,40.67
2023-02-11T00:47:23.010Z,51.83
2023-02-11T00:49:50.382Z,46.05
2023-02-11T00:52:17.412Z,46.15
2023-02-11T00:54:45.042Z,41.65
2023-02-11T00:57:12.263Z,44.45
2023-02-11T00:59:40.442Z,36.10
2023-02-11T01:02:07.572Z,49.70
2023-02-11T01:04:35.458Z,42.08
2023-02-11T01:07:02.582Z,39.58
2023-02-11T01:09:30.151Z,41.00
2023-02-11T01:11:57.164Z,43.65
2023-02-11T01:14:24.873Z,37.53
2023-02-11T01:16:52.682Z,42.13
2023-02-11T01:19:20.654Z,50.47
2023-02-11T01:21:47.869Z,46.88
2023-02-11T01:24:16.384Z,55.40
2023-02-11T01:26:43.384Z,41.38
2023-02-11T01:29:10.772Z,54.10
2023-02-11T01:31:38.263Z,39.55
2023-02-11T01:34:05.760Z,45.47
2023-02-11T01:36:33.048Z,48.13
2023-02-11T01:39:00.418Z,42.22
2023-02-11T01:41:27.496Z,38.78
2023-02-11T01:43:54.880Z,38.63
2023-02-11T01:46:38.753Z,40.88
2023-02-11T01:49:10.340Z,43.85
2023-02-11T01:51:42.405Z,36.58
2023-02-11T01:54:33.653Z,33.28
2023-02-11T01:57:24.203Z,45.10
2023-02-11T02:00:00.565Z,42.95
2023-02-11T02:02:37.787Z,39.00
2023-02-11T02:05:14.957Z,41.88
2023-02-11T02:07:56.541Z,41.83
2023-02-11T02:10:27.208Z,46.58
2023-02-11T02:12:54.824Z,35.03
2023-02-11T02:15:24.552Z,35.83
2023-02-11T02:18:17.551Z,44.35
2023-02-11T02:20:50.886Z,40.70
2023-02-11T02:23:26.874Z,44.35
2023-02-11T02:28:58.765Z,33.83
2023-02-11T02:31:53.393Z,48.72
2023-02-11T02:34:36.322Z,48.63
2023-02-11T02:37:17.477Z,56.17
2023-02-11T02:39:48.548Z,45.97
2023-02-11T02:42:17.124Z,39.92
2023-02-11T02:44:50.679Z,38.30
2023-02-11T02:47:18.165Z,50.65
2023-02-11T02:49:45.428Z,46.85
2023-02-11T02:52:35.682Z,47.50
2023-02-11T02:55:35.137Z,50.67
2023-02-11T02:58:24.185Z,39.55
2023-02-11T03:01:22.283Z,36.88
2023-02-11T03:03:53.753Z,43.78
2023-02-11T03:06:42.449Z,41.50
2023-02-11T03:09:19.604Z,46.20
2023-02-11T03:11:46.668Z,37.63
2023-02-11T03:14:17.513Z,44.95
2023-02-11T03:16:48.766Z,41.53
2023-02-11T03:19:24.760Z,38.30
2023-02-11T03:21:53.801Z,40.97
2023-02-11T03:24:28.372Z,40.63
2023-02-11T03:26:59.489Z,42.60
2023-02-11T03:29:57.375Z,48.85
2023-02-11T03:32:41.596Z,39.90
2023-02-11T03:35:15.323Z,40.72
2023-02-11T03:38:07.756Z,39.63
2023-02-11T03:40:41.446Z,40.28
2023-02-11T03:43:17.922Z,40.47
2023-02-11T03:45:49.672Z,48.22
2023-02-11T03:48:40.435Z,37.60
2023-02-11T03:51:11.187Z,34.80
2023-02-11T03:56:11.258Z,43.90
2023-02-11T03:58:38.276Z,43.08
2023-02-11T04:01:09.009Z,40.60
2023-02-11T04:03:39.284Z,46.47
2023-02-11T04:06:08.781Z,42.30
2023-02-11T04:08:36.179Z,39.90
2023-02-11T04:13:37.132Z,32.80
2023-02-11T04:16:04.715Z,46.00
2023-02-11T04:18:31.944Z,47.67
2023-02-11T04:21:00.975Z,47.10
2023-02-11T04:23:28.497Z,40.65
2023-02-11T04:25:57.101Z,43.53
2023-02-11T04:28:24.378Z,56.42
2023-02-11T04:30:51.878Z,68.78
2023-02-11T04:33:19.264Z,64.82
2023-02-11T04:35:46.927Z,63.42
2023-02-11T04:38:14.469Z,61.13
2023-02-11T04:40:43.670Z,46.35
2023-02-11T04:43:10.846Z,44.58
2023-02-11T04:45:46.384Z,32.28
2023-02-11T04:48:13.380Z,50.15
2023-02-11T04:50:41.692Z,47.63
2023-02-11T04:53:08.842Z,53.00
2023-02-11T04:55:36.344Z,49.20
2023-02-11T04:58:03.533Z,48.85
2023-02-11T05:00:31.006Z,51.08
2023-02-11T05:02:58.031Z,39.63
2023-02-11T05:05:25.630Z,57.13
2023-02-11T05:07:53.071Z,44.40
2023-02-11T05:10:20.619Z,62.30
2023-02-11T05:12:49.349Z,59.22
2023-02-11T05:15:16.876Z,55.15
2023-02-11T05:17:44.472Z,50.17
2023-02-11T05:20:11.996Z,54.50
2023-02-11T05:22:39.124Z,50.70
2023-02-11T05:25:08.875Z,60.25
2023-02-11T05:27:37.033Z,56.88
2023-02-11T05:30:06.165Z,57.35
2023-02-11T05:32:34.030Z,59.13
2023-02-11T05:35:01.733Z,49.83
2023-02-11T05:37:28.899Z,65.70
2023-02-11T05:39:56.340Z,59.15
2023-02-11T05:42:23.980Z,66.57
2023-02-11T05:44:54.324Z,64.97
2023-02-11T05:47:21.483Z,64.25
2023-02-11T05:49:50.175Z,57.45
2023-02-11T05:52:17.638Z,72.28
2023-02-11T05:54:45.500Z,85.85
2023-02-11T05:57:14.263Z,77.97
2023-02-11T05:59:41.953Z,75.30
2023-02-11T06:02:09.652Z,73.45
2023-02-11T06:04:37.942Z,77.85
2023-02-11T06:07:05.305Z,61.47
2023-02-11T06:09:32.939Z,64.53
2023-02-11T06:12:00.253Z,66.07
2023-02-11T06:14:33.839Z,75.82
2023-02-11T06:17:08.947Z,59.97
2023-02-11T06:19:36.687Z,61.95
2023-02-11T06:22:05.087Z,71.45
2023-02-11T06:24:55.012Z,62.30
2023-02-11T06:27:20.954Z,67.65
2023-02-11T06:29:57.064Z,65.45
2023-02-11T06:32:43.335Z,57.45
2023-02-11T06:35:45.771Z,72.95
2023-02-11T06:38:13.053Z,67.57
2023-02-11T06:40:40.770Z,67.18
2023-02-11T06:43:07.889Z,57.58
2023-02-11T06:45:35.424Z,71.70
2023-02-11T06:48:02.785Z,66.07
2023-02-11T06:50:30.453Z,75.10
2023-02-11T06:53:01.377Z,64.50
2023-02-11T06:55:29.257Z,62.97
2023-02-11T06:57:57.876Z,63.13
2023-02-11T07:00:26.979Z,90.88
2023-02-11T07:02:54.222Z,76.07
2023-02-11T07:05:22.441Z,86.45
2023-02-11T07:07:50.152Z,100.38
2023-02-11T07:10:17.784Z,96.20
2023-02-11T07:12:44.862Z,79.18
2023-02-11T07:15:12.434Z,74.30
2023-02-11T07:20:23.776Z,69.55
2023-02-11T07:22:51.829Z,71.40
2023-02-11T07:25:20.090Z,79.85
2023-02-11T07:27:57.436Z,73.75
2023-02-11T07:30:40.340Z,81.88
2023-02-11T07:33:26.581Z,63.78
2023-02-11T07:35:54.828Z,81.90
2023-02-11T07:41:11.083Z,81.40
2023-02-11T07:43:54.831Z,88.78
2023-02-11T07:46:51.600Z,89.47
2023-02-11T07:49:20.530Z,99.82
2023-02-11T07:51:49.611Z,86.15
2023-02-11T07:54:21.063Z,79.70
2023-02-11T07:59:48.632Z,85.57
2023-02-11T08:02:19.648Z,73.10
2023-02-11T08:04:53.723Z,82.03
2023-02-11T08:07:25.238Z,97.63
2023-02-11T08:09:54.562Z,72.13
2023-02-11T08:12:24.894Z,95.95
2023-02-11T08:14:52.616Z,81.45
2023-02-11T08:17:22.772Z,91.75
2023-02-11T08:19:53.493Z,81.57
2023-02-11T08:24:54.388Z,68.88
2023-02-11T08:27:22.287Z,75.13
2023-02-11T08:29:49.550Z,96.25
2023-02-11T08:32:18.779Z,93.43
2023-02-11T08:34:46.289Z,76.22
2023-02-11T08:37:16.058Z,96.68
2023-02-11T08:39:43.036Z,83.53
2023-02-11T08:42:10.904Z,72.00
2023-02-11T08:44:49.534Z,75.38
2023-02-11T08:47:21.005Z,70.75
2023-02-11T08:49:48.540Z,86.85
2023-02-11T08:52:16.340Z,80.57
2023-02-11T08:54:44.050Z,61.58
2023-02-11T08:57:11.602Z,71.38
2023-02-11T08:59:42.813Z,62.35
2023-02-11T09:02:14.306Z,30.02
2023-02-11T09:04:42.430Z,28.63
2023-02-11T09:07:10.352Z,24.88
2023-02-11T09:09:37.543Z,19.58
2023-02-11T09:14:47.459Z,14.80
2023-02-11T09:17:17.968Z,10.88
2023-02-11T09:19:47.447Z,15.65
2023-02-11T09:22:15.204Z,18.35
2023-02-11T09:24:52.832Z,12.85
2023-02-11T09:27:20.472Z,14.80
2023-02-11T09:29:50.716Z,12.23
2023-02-11T09:32:20.410Z,16.75
2023-02-11T09:34:48.488Z,14.15
2023-02-11T09:37:20.905Z,15.68
2023-02-11T09:39:48.162Z,19.60
2023-02-11T09:42:40.521Z,18.65
2023-02-11T09:45:34.414Z,20.23
2023-02-11T09:48:12.704Z,17.08
2023-02-11T09:50:43.952Z,17.58
2023-02-11T09:58:55.113Z,15.13
2023-02-11T10:01:41.454Z,17.20
2023-02-11T10:04:18.263Z,12.95
2023-02-11T10:06:50.931Z,17.13
2023-02-11T10:09:49.800Z,12.80
2023-02-11T10:12:48.438Z,14.63
2023-02-11T10:15:41.021Z,12.52
2023-02-11T10:18:33.556Z,15.85
2023-02-11T10:21:49.352Z,11.95
2023-02-11T10:24:19.846Z,13.35
2023-02-11T10:26:49.812Z,13.60
2023-02-11T10:29:35.710Z,14.77
2023-02-11T10:32:30.922Z,16.77
2023-02-11T10:38:09.255Z,12.57
2023-02-11T10:40:36.873Z,10.25
2023-02-11T10:43:18.727Z,10.65
2023-02-11T10:45:56.925Z,10.82
2023-02-11T10:51:35.379Z,8.00
2023-02-11T10:54:19.756Z,7.00
2023-02-11T10:59:44.294Z,11.60
2023-02-11T11:02:44.575Z,11.60
2023-02-11T11:05:22.122Z,10.45
2023-02-11T11:08:00.394Z,6.75
2023-02-11T11:16:37.553Z,9.15
2023-02-11T11:21:49.833Z,10.63
2023-02-11T11:24:34.716Z,12.15
2023-02-11T11:27:05.593Z,11.70
2023-02-11T11:29:39.658Z,9.05
2023-02-11T11:32:20.202Z,16.85
2023-02-11T11:34:56.168Z,8.27
2023-02-11T11:37:28.887Z,7.90
2023-02-11T11:40:22.812Z,9.50
2023-02-11T11:43:17.588Z,8.60
2023-02-11T11:46:02.173Z,11.43
2023-02-11T11:48:42.759Z,8.10
2023-02-11T11:51:13.749Z,12.95
2023-02-11T11:53:46.193Z,10.02
2023-02-11T11:56:27.651Z,12.68
2023-02-11T11:59:04.351Z,10.05
2023-02-11T12:01:51.679Z,14.52
2023-02-11T12:04:37.622Z,11.77
2023-02-11T12:07:46.655Z,12.57
2023-02-11T12:10:33.283Z,12.57
2023-02-11T12:13:28.500Z,11.80
2023-02-11T12:16:12.092Z,13.75
2023-02-11T12:19:17.246Z,15.65
2023-02-11T12:22:12.664Z,12.18
2023-02-11T12:25:17.489Z,11.20
2023-02-11T12:27:55.536Z,9.77
2023-02-11T12:30:22.758Z,13.65
2023-02-11T12:33:27.674Z,13.43
2023-02-11T12:39:40.423Z,12.88
2023-02-11T12:42:29.142Z,14.18
2023-02-11T12:44:57.037Z,16.85
2023-02-11T12:47:44.742Z,13.27
2023-02-11T12:50:30.805Z,12.88
2023-02-11T12:53:25.494Z,13.57
2023-02-11T13:01:45.278Z,14.05
2023-02-11T13:04:20.417Z,10.75
2023-02-11T13:12:56.665Z,17.13
2023-02-11T13:15:25.939Z,14.60
2023-02-11T13:17:57.653Z,11.30
2023-02-11T13:21:03.547Z,9.45
2023-02-11T13:24:00.793Z,14.68
2023-02-11T13:26:47.737Z,15.50
2023-02-11T13:29:20.793Z,11.05
2023-02-11T13:32:21.572Z,13.85
2023-02-11T13:34:52.787Z,15.30
2023-02-11T13:37:24.359Z,10.70
2023-02-11T13:39:58.775Z,9.35
2023-02-11T13:42:26.725Z,12.45
2023-02-11T13:44:58.844Z,16.52
2023-02-11T13:47:29.266Z,13.13
2023-02-11T13:55:35.026Z,8.85
2023-02-11T13:58:08.548Z,8.95
2023-02-11T14:00:37.384Z,9.38
2023-02-11T14:03:32.954Z,8.75
2023-02-11T14:06:30.103Z,8.70
2023-02-11T14:09:17.417Z,8.77
2023-02-11T14:11:49.461Z,9.27
2023-02-11T14:14:32.638Z,8.25
2023-02-11T14:17:02.030Z,12.90
2023-02-11T14:19:39.885Z,10.75
2023-02-11T14:25:28.028Z,11.32
2023-02-11T14:28:25.249Z,9.38
2023-02-11T14:31:08.964Z,8.18
2023-02-11T14:38:04.350Z,9.05
2023-02-11T14:41:02.938Z,4.63
2023-02-11T14:43:50.278Z,8.70
2023-02-11T14:46:22.227Z,19.25
2023-02-11T14:48:53.338Z,10.02
2023-02-11T14:51:39.666Z,9.98
2023-02-11T14:54:17.187Z,16.00
2023-02-11T14:56:47.800Z,11.48
2023-02-11T14:59:23.070Z,14.07
2023-02-11T15:01:54.898Z,16.88
2023-02-11T15:04:27.193Z,10.02
2023-02-11T15:06:58.267Z,11.68
2023-02-11T15:09:34.511Z,12.10
2023-02-11T15:12:02.047Z,13.60
2023-02-11T15:14:33.675Z,10.73
2023-02-11T15:17:08.277Z,12.18
2023-02-11T15:19:40.017Z,16.80
2023-02-11T15:22:18.658Z,13.35
2023-02-11T15:24:57.651Z,15.70
2023-02-11T15:27:25.973Z,15.15
2023-02-11T15:29:53.147Z,12.32
2023-02-11T15:32:23.964Z,13.00
2023-02-11T15:34:54.340Z,11.35
2023-02-11T15:37:29.963Z,13.23
2023-02-11T15:40:19.359Z,14.38
2023-02-11T15:43:07.781Z,16.13
2023-02-11T15:45:41.732Z,14.48
2023-02-11T15:48:21.392Z,15.60
2023-02-11T15:51:00.474Z,13.10
2023-02-11T15:53:53.743Z,16.95
2023-02-11T15:56:26.632Z,15.57
2023-02-11T15:58:57.338Z,18.38
2023-02-11T16:04:31.178Z,20.20
2023-02-11T16:06:58.356Z,17.25
2023-02-11T16:09:36.549Z,17.30
2023-02-11T16:12:22.677Z,16.65
2023-02-11T16:14:52.647Z,17.83
2023-02-11T16:17:25.344Z,22.05
2023-02-11T16:19:57.654Z,23.52
2023-02-11T16:25:02.948Z,18.45
2023-02-11T16:27:38.157Z,18.77
2023-02-11T16:30:40.540Z,21.85
2023-02-11T16:33:11.254Z,18.48
2023-02-11T16:35:38.701Z,24.67
2023-02-11T16:38:06.441Z,18.23
2023-02-11T16:40:38.687Z,14.38
2023-02-11T16:43:06.734Z,18.52
2023-02-11T16:45:42.863Z,22.75
2023-02-11T16:48:16.903Z,23.70
2023-02-11T16:51:34.423Z,22.55
2023-02-11T16:54:06.327Z,22.77
2023-02-11T16:56:34.286Z,29.58
2023-02-11T16:59:04.145Z,23.90
2023-02-11T17:01:32.765Z,25.52
2023-02-11T17:04:00.311Z,25.77
2023-02-11T17:06:28.741Z,21.80
2023-02-11T17:08:55.806Z,26.52
2023-02-11T17:11:23.278Z,19.92
2023-02-11T17:13:50.493Z,21.05
2023-02-11T17:16:21.041Z,19.98
2023-02-11T17:18:49.153Z,20.27
2023-02-11T17:21:16.951Z,19.23
2023-02-11T17:23:45.872Z,21.08
2023-02-11T17:26:13.200Z,19.63
2023-02-11T17:28:40.345Z,22.55
2023-02-11T17:31:09.595Z,28.25
2023-02-11T17:33:37.884Z,19.30
2023-02-11T17:36:07.293Z,12.00
2023-02-11T17:38:35.613Z,26.73
2023-02-11T17:41:04.917Z,19.35
2023-02-11T17:43:32.185Z,16.15
2023-02-11T17:45:59.705Z,22.60
2023-02-11T17:48:26.909Z,25.80
2023-02-11T17:50:54.269Z,19.75
2023-02-11T17:53:21.235Z,16.77
2023-02-11T17:55:48.856Z,21.83
2023-02-11T17:58:16.329Z,21.60
2023-02-11T18:00:43.819Z,27.27
2023-02-11T18:03:10.859Z,22.83
2023-02-11T18:05:38.828Z,18.20
2023-02-11T18:08:07.717Z,19.40
2023-02-11T18:10:36.296Z,25.00
2023-02-11T18:13:08.039Z,30.63
2023-02-11T18:15:35.981Z,22.95
2023-02-11T18:18:05.903Z,17.02
2023-02-11T18:23:24.329Z,24.50
2023-02-11T18:25:58.110Z,27.15
2023-02-11T18:28:27.365Z,25.05
2023-02-11T18:33:30.049Z,17.67
2023-02-11T18:35:57.921Z,24.63
2023-02-11T18:38:26.106Z,26.63
2023-02-11T18:40:57.849Z,26.25
2023-02-11T18:43:26.106Z,21.88
2023-02-11T18:45:54.895Z,30.10
2023-02-11T18:48:23.014Z,28.88
2023-02-11T18:50:50.520Z,25.95
2023-02-11T18:53:18.915Z,28.42
2023-02-11T18:55:48.492Z,24.23
2023-02-11T18:58:23.291Z,27.95
2023-02-11T19:03:22.764Z,25.65
2023-02-11T19:05:50.924Z,22.08
2023-02-11T19:08:20.263Z,25.10
2023-02-11T19:10:56.712Z,24.58
2023-02-11T19:13:49.549Z,29.98
2023-02-11T19:16:20.116Z,26.10
2023-02-11T19:18:47.334Z,32.55
2023-02-11T19:21:14.846Z,31.73
2023-02-11T19:23:44.360Z,33.05
2023-02-11T19:26:11.752Z,23.08
2023-02-11T19:28:39.477Z,29.05
2023-02-11T19:31:09.244Z,24.40
2023-02-11T19:33:36.730Z,30.02
2023-02-11T19:36:06.052Z,26.50
2023-02-11T19:38:33.194Z,30.40
2023-02-11T19:41:00.650Z,28.73
2023-02-11T19:43:28.069Z,26.02
2023-02-11T19:45:59.416Z,25.85
2023-02-11T19:48:26.684Z,30.65
2023-02-11T19:50:54.738Z,27.38
2023-02-11T19:53:21.898Z,28.90
2023-02-11T19:55:52.654Z,37.13
2023-02-11T19:58:19.856Z,30.60
2023-02-11T20:00:47.376Z,33.47
2023-02-11T20:03:14.529Z,30.60
2023-02-11T20:05:47.086Z,30.27
2023-02-11T20:08:17.191Z,35.10
2023-02-11T20:10:44.595Z,24.10
2023-02-11T20:13:14.021Z,36.55
2023-02-11T20:15:42.236Z,30.23
2023-02-11T20:18:09.323Z,31.00
2023-02-11T20:20:44.277Z,32.08
2023-02-11T20:23:41.212Z,33.45
2023-02-11T20:26:21.665Z,38.17
2023-02-11T20:28:51.106Z,36.60
2023-02-11T20:33:48.689Z,25.60
2023-02-11T20:36:23.779Z,31.13
2023-02-11T20:38:52.520Z,26.15
2023-02-11T20:41:26.234Z,33.83
2023-02-11T20:43:55.899Z,35.10
2023-02-11T20:46:29.194Z,34.67
2023-02-11T20:48:58.407Z,29.02
2023-02-11T20:51:30.616Z,32.85
2023-02-11T20:53:58.506Z,18.90
2023-02-11T20:56:30.008Z,36.17
2023-02-11T20:58:59.932Z,30.30
2023-02-11T21:01:41.076Z,32.25
2023-02-11T21:04:12.428Z,40.92
2023-02-11T21:06:46.998Z,37.38
2023-02-11T21:09:17.674Z,18.58
2023-02-11T21:11:45.006Z,25.27
2023-02-11T21:14:12.912Z,35.00
2023-02-11T21:16:40.328Z,41.80
2023-02-11T21:19:07.384Z,38.50
2023-02-11T21:21:37.209Z,36.65
2023-02-11T21:26:35.739Z,39.72
2023-02-11T21:29:07.320Z,39.67
2023-02-11T21:31:36.250Z,43.15
2023-02-11T21:34:03.469Z,34.53
2023-02-11T21:36:31.433Z,40.78
2023-02-11T21:38:58.878Z,39.45
2023-02-11T21:41:28.179Z,37.90
2023-02-11T21:43:55.350Z,36.85
2023-02-11T21:46:23.491Z,37.67
2023-02-11T21:48:50.685Z,34.58
2023-02-11T21:51:21.157Z,37.30
2023-02-11T21:53:48.187Z,36.17
2023-02-11T21:56:18.581Z,34.47
2023-02-11T21:58:49.204Z,42.95
2023-02-11T22:01:25.679Z,35.85
2023-02-11T22:03:52.859Z,37.80
2023-02-11T22:06:26.400Z,35.72
2023-02-11T22:08:55.020Z,38.88
2023-02-11T22:11:24.363Z,31.65
2023-02-11T22:13:56.496Z,39.83
2023-02-11T22:16:25.874Z,37.38
2023-02-11T22:18:53.496Z,39.92
2023-02-11T22:21:22.698Z,34.25
2023-02-11T22:23:52.052Z,34.20
2023-02-11T22:26:23.911Z,39.55
2023-02-11T22:28:52.224Z,41.58
2023-02-11T22:31:22.821Z,43.75
2023-02-11T22:33:51.151Z,43.72
2023-02-11T22:36:39.384Z,50.10
2023-02-11T22:39:15.313Z,42.65
2023-02-11T22:41:44.583Z,36.78
2023-02-11T22:44:22.539Z,39.67
2023-02-11T22:46:50.990Z,36.60
2023-02-11T22:49:20.019Z,39.40
2023-02-11T22:51:48.401Z,35.42
2023-02-11T22:54:18.562Z,36.40
2023-02-11T22:56:49.679Z,46.28
2023-02-11T22:59:17.153Z,40.13
2023-02-11T23:01:45.117Z,38.00
2023-02-11T23:04:14.944Z,43.00
2023-02-11T23:06:43.232Z,29.75
2023-02-11T23:09:13.957Z,43.75
2023-02-11T23:11:41.770Z,43.03
2023-02-11T23:14:12.356Z,45.33
2023-02-11T23:16:40.021Z,47.92
2023-02-11T23:19:08.953Z,45.38
2023-02-11T23:21:38.845Z,48.28
2023-02-11T23:24:10.556Z,46.83
2023-02-11T23:26:40.194Z,55.88
2023-02-11T23:29:07.536Z,52.70
2023-02-11T23:31:39.896Z,57.13
2023-02-11T23:34:09.103Z,57.33
2023-02-11T23:36:37.178Z,52.85
2023-02-11T23:39:05.061Z,49.78
2023-02-11T23:41:34.445Z,45.42
2023-02-11T23:44:01.484Z,55.42
2023-02-11T23:46:28.942Z,53.70
2023-02-11T23:48:56.296Z,52.75
2023-02-11T23:51:24.013Z,49.78
2023-02-11T23:53:51.755Z,51.88
2023-02-11T23:56:21.495Z,51.92
2023-02-11T23:58:49.991Z,43.22
